Time;durP1;ratioP1;P1;durP2;ratioP2;P2;SDS_P1;SDS_P2;PMS_P1;PMS_P2;Temp;Humidity;BMP_temperature;BMP_pressure;BME280_temperature;BME280_humidity;BME280_pressure;Samples;Min_cycle;Max_cycle;Signal;HPM_P1;HPM_P2
2021/07/30 00:01:23;;;;;;;28.15;10.68;;;;;;;21.38;100.00;100247.86;1738005;82;21571;-78
2021/07/30 00:03:49;;;;;;;27.30;11.53;;;;;;;21.36;100.00;100250.17;1737518;82;21092;-79
2021/07/30 00:06:15;;;;;;;25.35;11.90;;;;;;;21.34;100.00;100246.92;1737859;82;21042;-79
2021/07/30 00:08:41;;;;;;;34.40;11.75;;;;;;;21.32;100.00;100243.72;1737980;82;21078;-79
2021/07/30 00:11:08;;;;;;;24.60;12.58;;;;;;;21.32;100.00;100235.49;1738102;82;21605;-79
2021/07/30 00:13:34;;;;;;;23.67;11.40;;;;;;;21.31;100.00;100242.12;1737929;82;21006;-79
2021/07/30 00:16:03;;;;;;;27.75;12.03;;;;;;;21.30;100.00;100245.45;1737899;82;21114;-79
2021/07/30 00:18:29;;;;;;;28.45;12.10;;;;;;;21.30;100.00;100242.70;1737568;82;21070;-78
2021/07/30 00:20:56;;;;;;;24.95;12.50;;;;;;;21.30;100.00;100239.96;1737657;81;21007;-78
2021/07/30 00:23:22;;;;;;;25.35;11.83;;;;;;;21.28;100.00;100232.64;1737891;82;20992;-78
2021/07/30 00:25:48;;;;;;;34.75;12.68;;;;;;;21.29;100.00;100237.55;1737774;82;21617;-78
2021/07/30 00:28:14;;;;;;;24.35;12.30;;;;;;;21.28;100.00;100246.34;1719147;82;21768;-79
2021/07/30 00:30:40;;;;;;;26.87;11.80;;;;;;;21.24;100.00;100248.17;1737888;82;21015;-79
2021/07/30 00:33:07;;;;;;;29.15;11.83;;;;;;;21.23;100.00;100262.20;1737757;82;21031;-79
2021/07/30 00:35:33;;;;;;;25.62;12.25;;;;;;;21.18;100.00;100276.12;1738018;82;21034;-83
2021/07/30 00:37:59;;;;;;;30.35;12.55;;;;;;;21.15;100.00;100268.03;1737753;82;21019;-79
2021/07/30 00:40:25;;;;;;;27.22;12.45;;;;;;;21.15;100.00;100254.33;1737921;82;21034;-79
2021/07/30 00:42:53;;;;;;;23.05;12.10;;;;;;;21.11;100.00;100253.39;1737828;82;21163;-79
2021/07/30 00:45:20;;;;;;;25.57;12.23;;;;;;;21.06;100.00;100241.27;1737968;82;21051;-79
2021/07/30 00:47:50;;;;;;;30.55;11.63;;;;;;;21.00;100.00;100239.88;1737928;82;21085;-79
2021/07/30 00:50:20;;;;;;;27.20;12.23;;;;;;;20.98;100.00;100249.03;1688403;84;21104;-78
2021/07/30 00:52:49;;;;;;;27.70;12.80;;;;;;;20.91;100.00;100263.84;1688315;85;21062;-79
2021/07/30 00:55:19;;;;;;;30.97;13.80;;;;;;;20.86;100.00;100258.81;1688399;85;21486;-79
2021/07/30 00:57:48;;;;;;;28.17;12.82;;;;;;;20.84;100.00;100246.59;1688595;85;21003;-75
2021/07/30 01:00:22;;;;;;;28.30;13.45;;;;;;;20.78;100.00;100242.46;1656852;85;21740;-79
2021/07/30 01:02:55;;;;;;;34.92;13.65;;;;;;;20.75;100.00;100240.39;1679819;85;21038;-78
2021/07/30 01:05:29;;;;;;;27.82;13.60;;;;;;;20.68;100.00;100262.86;1679549;85;21173;-78
2021/07/30 01:07:59;;;;;;;26.70;12.50;;;;;;;20.68;100.00;100262.86;1611303;88;21194;-77
2021/07/30 01:10:30;;;;;;;28.27;14.13;;;;;;;20.63;100.00;100254.84;1614063;88;21043;-77
2021/07/30 01:12:58;;;;;;;36.28;14.43;;;;;;;20.62;100.00;100245.03;1610480;88;21067;-79
2021/07/30 01:15:29;;;;;;;30.25;13.22;;;;;;;20.59;100.00;100254.72;1614068;88;21063;-77
2021/07/30 01:17:57;;;;;;;22.67;12.40;;;;;;;20.58;100.00;100261.31;1613781;88;21134;-78
2021/07/30 01:20:27;;;;;;;30.62;13.15;;;;;;;20.54;100.00;100260.39;1591188;88;21135;-82
2021/07/30 01:23:01;;;;;;;28.75;14.13;;;;;;;20.50;100.00;100255.33;1633322;87;21118;-79
2021/07/30 01:25:31;;;;;;;31.97;14.03;;;;;;;20.48;100.00;100249.38;1633461;87;21037;-78
2021/07/30 01:28:01;;;;;;;37.55;14.07;;;;;;;20.46;100.00;100250.84;1633321;87;21045;-78
2021/07/30 01:30:31;;;;;;;42.43;15.98;;;;;;;20.47;100.00;100241.48;1633300;87;21984;-78
2021/07/30 01:32:57;;;;;;;39.08;15.43;;;;;;;20.49;100.00;100247.44;1632524;87;21650;-77
2021/07/30 01:35:23;;;;;;;32.08;14.15;;;;;;;20.50;100.00;100251.23;1632565;87;21024;-79
2021/07/30 01:37:49;;;;;;;30.55;14.23;;;;;;;20.48;100.00;100251.32;1634307;86;21120;-78
2021/07/30 01:40:15;;;;;;;33.88;15.08;;;;;;;20.42;100.00;100256.20;1679938;84;21003;-76
2021/07/30 01:42:42;;;;;;;31.17;14.80;;;;;;;20.40;100.00;100253.78;1681780;84;21931;-78
2021/07/30 01:45:10;;;;;;;34.83;15.20;;;;;;;20.37;100.00;100238.59;1705264;84;21071;-79
2021/07/30 01:47:36;;;;;;;34.25;14.90;;;;;;;20.36;100.00;100243.85;1705546;83;21058;-78
2021/07/30 01:50:04;;;;;;;44.18;16.25;;;;;;;20.33;100.00;100244.52;1705657;84;21191;-79
2021/07/30 01:52:30;;;;;;;34.60;15.90;;;;;;;20.32;100.00;100256.02;1705757;84;21042;-79
2021/07/30 01:54:56;;;;;;;35.05;15.43;;;;;;;20.33;100.00;100254.09;1705195;84;21905;-78
2021/07/30 01:57:22;;;;;;;30.43;14.87;;;;;;;20.31;100.00;100261.26;1705427;84;21031;-79
2021/07/30 01:59:48;;;;;;;44.70;18.55;;;;;;;20.31;100.00;100264.57;1705342;83;20947;-78
2021/07/30 02:02:14;;;;;;;34.53;16.77;;;;;;;20.29;100.00;100262.16;1705170;84;20947;-77
2021/07/30 02:04:40;;;;;;;42.93;18.02;;;;;;;20.30;100.00;100266.51;1726777;82;20869;-78
2021/07/30 02:07:06;;;;;;;46.60;16.85;;;;;;;20.32;100.00;100270.27;1740130;82;21098;-79
2021/07/30 02:09:32;;;;;;;40.60;17.48;;;;;;;20.34;100.00;100263.90;1740064;82;21006;-78
2021/07/30 02:11:58;;;;;;;33.98;16.45;;;;;;;20.35;100.00;100260.84;1740364;82;20832;-79
2021/07/30 02:14:25;;;;;;;48.08;18.23;;;;;;;20.35;100.00;100262.22;1740072;82;21026;-77
2021/07/30 02:17:00;;;;;;;37.78;16.62;;;;;;;20.36;100.00;100256.17;1739815;82;21530;-79
2021/07/30 02:19:26;;;;;;;41.95;18.07;;;;;;;20.34;100.00;100255.69;1740177;82;21384;-79
2021/07/30 02:21:55;;;;;;;44.40;18.80;;;;;;;20.36;100.00;100265.17;1742616;82;20998;-78
2021/07/30 02:24:23;;;;;;;44.63;19.70;;;;;;;20.36;100.00;100267.11;1742449;82;21059;-79
2021/07/30 02:26:49;;;;;;;43.17;17.92;;;;;;;20.39;100.00;100265.08;1742246;82;21518;-78
2021/07/30 02:29:15;;;;;;;34.23;16.95;;;;;;;20.42;100.00;100268.52;1742567;82;21082;-78
2021/07/30 02:31:41;;;;;;;44.80;19.52;;;;;;;20.46;100.00;100272.75;1742858;82;21502;-78
2021/07/30 02:34:08;;;;;;;48.38;18.57;;;;;;;20.47;100.00;100276.53;1742718;82;21004;-78
2021/07/30 02:36:35;;;;;;;41.63;19.60;;;;;;;20.49;100.00;100275.61;1712853;82;20984;-84
2021/07/30 02:39:01;;;;;;;61.23;20.43;;;;;;;20.50;100.00;100275.04;1742459;82;21498;-78
2021/07/30 02:41:26;;;;;;;34.80;17.90;;;;;;;20.52;100.00;100269.50;1742771;82;20892;-78
2021/07/30 02:43:52;;;;;;;37.20;18.57;;;;;;;20.56;100.00;100271.81;1742818;82;21151;-78
2021/07/30 02:46:19;;;;;;;40.58;19.37;;;;;;;20.61;100.00;100277.06;1742826;82;21038;-79
2021/07/30 02:48:46;;;;;;;41.20;17.52;;;;;;;20.64;100.00;100271.49;1742561;82;21055;-76
2021/07/30 02:51:13;;;;;;;41.75;18.57;;;;;;;20.70;100.00;100287.15;1742856;82;21057;-76
2021/07/30 02:53:40;;;;;;;45.92;19.80;;;;;;;20.76;100.00;100281.13;1742873;82;21117;-79
2021/07/30 02:56:08;;;;;;;49.05;21.17;;;;;;;20.85;100.00;100283.78;1742504;82;21077;-79
2021/07/30 02:58:36;;;;;;;45.17;20.60;;;;;;;20.94;100.00;100280.97;1744432;82;21015;-85
2021/07/30 03:01:03;;;;;;;51.53;20.68;;;;;;;21.05;100.00;100278.83;1742674;82;21038;-79
2021/07/30 03:03:29;;;;;;;53.80;21.30;;;;;;;21.16;100.00;100282.53;1742645;82;21081;-79
2021/07/30 03:06:00;;;;;;;56.05;22.55;;;;;;;21.25;100.00;100268.95;1742564;82;21238;-76
2021/07/30 03:08:27;;;;;;;45.20;20.82;;;;;;;21.40;100.00;100273.01;1681981;85;21157;-78
2021/07/30 03:10:53;;;;;;;47.75;21.68;;;;;;;21.54;100.00;100277.59;1652186;86;21121;-77
2021/07/30 03:13:19;;;;;;;44.33;21.23;;;;;;;21.69;100.00;100278.86;1652273;86;21031;-80
2021/07/30 03:15:45;;;;;;;46.77;22.02;;;;;;;21.85;100.00;100283.08;1652165;86;20979;-77
2021/07/30 03:18:11;;;;;;;49.65;21.62;;;;;;;22.00;100.00;100276.92;1652187;86;20912;-79
2021/07/30 03:20:37;;;;;;;50.80;22.82;;;;;;;22.15;100.00;100281.48;1648078;86;21143;-80
2021/07/30 03:23:03;;;;;;;47.30;22.20;;;;;;;22.31;100.00;100282.38;1642833;87;21305;-79
2021/07/30 03:25:29;;;;;;;49.80;21.60;;;;;;;22.50;100.00;100293.30;1642992;87;21651;-79
2021/07/30 03:27:55;;;;;;;51.53;23.00;;;;;;;22.72;100.00;100289.25;1661564;85;20898;-79
2021/07/30 03:30:21;;;;;;;47.15;23.12;;;;;;;23.01;100.00;100293.03;1666106;85;21115;-78
2021/07/30 03:32:47;;;;;;;51.92;22.52;;;;;;;23.31;100.00;100287.14;1668423;85;21135;-79
2021/07/30 03:35:12;;;;;;;48.40;21.65;;;;;;;23.58;100.00;100297.26;1660862;85;20899;-79
2021/07/30 03:37:38;;;;;;;46.98;21.02;;;;;;;23.81;100.00;100284.28;1659282;85;21743;-79
2021/07/30 03:40:06;;;;;;;47.73;22.62;;;;;;;24.06;100.00;100288.19;1635517;86;20962;-80
2021/07/30 03:42:32;;;;;;;50.83;22.07;;;;;;;24.29;100.00;100280.84;1655396;86;21018;-79
2021/07/30 03:44:58;;;;;;;45.30;21.02;;;;;;;24.66;100.00;100281.84;1659377;85;21084;-79
2021/07/30 03:47:24;;;;;;;52.05;22.52;;;;;;;25.03;100.00;100277.23;1659266;85;20998;-77
2021/07/30 03:49:50;;;;;;;46.55;22.20;;;;;;;25.40;100.00;100274.78;1659319;85;20875;-79
2021/07/30 03:52:18;;;;;;;45.45;21.80;;;;;;;25.78;100.00;100272.44;1658973;85;20851;-79
2021/07/30 03:54:44;;;;;;;42.25;21.75;;;;;;;26.22;100.00;100269.16;1659272;86;21117;-80
2021/07/30 03:57:10;;;;;;;50.12;22.77;;;;;;;26.63;100.00;100267.94;1659362;85;20986;-80
2021/07/30 03:59:36;;;;;;;52.45;23.15;;;;;;;27.03;100.00;100266.97;1659330;85;20962;-80
2021/07/30 04:02:02;;;;;;;47.50;23.07;;;;;;;27.39;100.00;100269.54;1659208;85;20868;-77
2021/07/30 04:04:28;;;;;;;45.52;23.90;;;;;;;27.67;100.00;100262.63;1677693;82;20877;-80
2021/07/30 04:06:54;;;;;;;53.78;26.30;;;;;;;28.09;100.00;100259.39;1742232;80;20869;-78
2021/07/30 04:09:21;;;;;;;54.13;25.15;;;;;;;28.47;100.00;100259.41;1760015;80;21953;-78
2021/07/30 04:11:47;;;;;;;52.13;25.20;;;;;;;28.81;100.00;100254.16;1769477;80;21501;-79
2021/07/30 04:14:13;;;;;;;54.38;26.73;;;;;;;29.10;100.00;100247.51;1750144;80;20989;-78
2021/07/30 04:16:39;;;;;;;52.98;27.55;;;;;;;29.24;100.00;100255.63;1748913;80;20941;-79
2021/07/30 04:19:07;;;;;;;51.70;26.65;;;;;;;29.47;100.00;100251.88;1748872;80;21605;-80
2021/07/30 04:21:33;;;;;;;60.92;29.52;;;;;;;29.75;100.00;100251.70;1751369;81;21028;-80
2021/07/30 04:24:01;;;;;;;59.70;30.12;;;;;;;29.91;100.00;100252.66;1742049;81;20988;-78
2021/07/30 04:26:28;;;;;;;59.13;31.15;;;;;;;30.13;100.00;100254.19;1762639;81;21032;-79
2021/07/30 04:28:54;;;;;;;60.23;30.95;;;;;;;29.99;100.00;100251.45;1750227;80;21035;-79
2021/07/30 04:31:20;;;;;;;68.10;32.83;;;;;;;30.08;100.00;100252.61;1750733;81;21078;-81
2021/07/30 04:33:46;;;;;;;67.15;33.53;;;;;;;30.19;100.00;100252.58;1747664;81;21082;-79
2021/07/30 04:36:18;;;;;;;64.60;32.93;;;;;;;30.15;100.00;100250.42;1748350;81;21613;-80
2021/07/30 04:38:45;;;;;;;73.43;35.23;;;;;;;30.27;100.00;100254.78;1748673;81;21012;-77
2021/07/30 04:41:11;;;;;;;64.45;34.00;;;;;;;30.36;100.00;100252.36;1754296;81;21495;-79
2021/07/30 04:43:37;;;;;;;70.00;34.25;;;;;;;30.08;100.00;100258.77;1754323;81;21009;-79
2021/07/30 04:46:03;;;;;;;66.28;34.83;;;;;;;29.95;100.00;100254.84;1753769;81;21108;-81
2021/07/30 04:48:30;;;;;;;66.35;34.65;;;;;;;29.78;100.00;100260.63;1753727;81;21078;-80
2021/07/30 04:50:56;;;;;;;71.95;35.13;;;;;;;29.65;100.00;100265.80;1747643;81;21034;-78
2021/07/30 04:53:22;;;;;;;70.75;33.63;;;;;;;29.58;100.00;100269.33;1725126;81;20837;-79
2021/07/30 04:55:48;;;;;;;69.47;32.88;;;;;;;29.36;100.00;100267.77;1740881;81;21015;-80
2021/07/30 04:58:13;;;;;;;71.22;33.63;;;;;;;29.17;100.00;100260.59;1724137;82;21155;-83
2021/07/30 05:00:39;;;;;;;73.65;33.98;;;;;;;29.08;100.00;100270.69;1745103;81;20962;-79
2021/07/30 05:03:05;;;;;;;68.65;34.50;;;;;;;29.04;100.00;100266.34;1745196;81;20896;-79
2021/07/30 05:05:31;;;;;;;71.05;33.63;;;;;;;28.87;100.00;100270.02;1747394;82;20932;-79
2021/07/30 05:07:57;;;;;;;65.55;34.35;;;;;;;28.78;100.00;100272.38;1745487;82;20951;-80
2021/07/30 05:10:22;;;;;;;67.58;32.15;;;;;;;28.73;100.00;100272.75;1745445;81;21589;-81
2021/07/30 05:12:48;;;;;;;73.72;32.40;;;;;;;28.79;100.00;100274.55;1745266;81;20951;-80
2021/07/30 05:15:14;;;;;;;72.80;32.98;;;;;;;28.80;100.00;100277.55;1745211;82;20939;-80
2021/07/30 05:17:41;;;;;;;72.35;34.55;;;;;;;28.85;100.00;100281.30;1741199;81;21044;-81
2021/07/30 05:20:09;;;;;;;67.92;32.67;;;;;;;29.34;100.00;100282.62;1738156;81;21011;-80
2021/07/30 05:22:35;;;;;;;64.90;33.13;;;;;;;29.51;100.00;100284.62;1714462;82;21157;-80
2021/07/30 05:25:02;;;;;;;67.17;31.85;;;;;;;29.55;100.00;100281.23;1693459;83;21083;-79
2021/07/30 05:27:27;;;;;;;65.57;30.57;;;;;;;30.30;100.00;100280.39;1714292;83;21476;-80
2021/07/30 05:29:58;;;;;;;59.77;29.70;;;;;;;31.41;100.00;100277.84;1714116;83;20832;-84
2021/07/30 05:32:25;;;;;;;67.42;30.90;;;;;;;32.30;100.00;100279.58;1691667;83;21089;-79
2021/07/30 05:34:50;;;;;;;53.00;27.10;;;;;;;32.96;100.00;100276.94;1713952;83;21923;-80
2021/07/30 05:37:16;;;;;;;59.23;27.58;;;;;;;33.67;100.00;100271.66;1714179;83;20892;-80
2021/07/30 05:39:42;;;;;;;55.43;26.93;;;;;;;33.95;100.00;100274.37;1713970;83;20903;-80
2021/07/30 05:42:08;;;;;;;48.48;25.27;;;;;;;34.48;100.00;100278.94;1714121;83;20873;-79
2021/07/30 05:44:35;;;;;;;52.43;24.57;;;;;;;35.02;100.00;100274.97;1693480;83;21106;-78
2021/07/30 05:47:03;;;;;;;53.33;25.50;;;;;;;35.44;100.00;100284.37;1714094;83;21184;-80
2021/07/30 05:49:29;;;;;;;51.95;25.25;;;;;;;36.05;100.00;100276.45;1713785;83;21011;-79
2021/07/30 05:51:55;;;;;;;52.10;25.45;;;;;;;36.51;100.00;100279.95;1714141;83;21522;-79
2021/07/30 05:54:24;;;;;;;49.03;23.40;;;;;;;36.88;100.00;100275.63;1714115;83;20884;-80
2021/07/30 05:56:56;;;;;;;40.00;22.52;;;;;;;37.31;100.00;100279.91;1713851;83;21043;-80
2021/07/30 05:59:26;;;;;;;48.35;22.32;;;;;;;37.73;100.00;100276.28;1713891;83;26413;-80
2021/07/30 06:01:51;;;;;;;46.92;22.15;;;;;;;37.88;100.00;100276.56;1716001;83;21031;-80
2021/07/30 06:04:17;;;;;;;45.52;23.15;;;;;;;37.64;100.00;100280.42;1714330;83;20892;-80
2021/07/30 06:06:43;;;;;;;44.65;23.77;;;;;;;38.23;100.00;100279.98;1714233;83;21490;-80
2021/07/30 06:09:09;;;;;;;37.35;20.82;;;;;;;38.69;100.00;100281.08;1714267;83;20853;-79
2021/07/30 06:11:34;;;;;;;41.80;20.25;;;;;;;39.12;96.10;100280.02;1714218;83;21942;-77
2021/07/30 06:14:00;;;;;;;35.13;18.82;;;;;;;38.99;83.14;100281.55;1714234;83;20880;-80
2021/07/30 06:16:26;;;;;;;38.15;18.60;;;;;;;38.35;91.39;100288.35;1714336;83;20899;-79
2021/07/30 06:18:52;;;;;;;30.25;18.62;;;;;;;38.11;82.27;100292.25;1714286;83;20876;-80
2021/07/30 06:21:21;;;;;;;34.67;19.48;;;;;;;37.95;86.54;100291.83;1724250;82;20971;-80
2021/07/30 06:23:47;;;;;;;36.55;20.60;;;;;;;38.44;86.09;100289.06;1745631;82;21085;-80
2021/07/30 06:26:13;;;;;;;37.45;18.32;;;;;;;38.74;82.02;100272.03;1745288;82;21063;-79
2021/07/30 06:28:39;;;;;;;41.37;19.40;;;;;;;39.35;83.08;100303.44;1745357;82;21776;-80
2021/07/30 06:31:05;;;;;;;39.58;19.15;;;;;;;39.86;74.89;100306.36;1745464;82;20876;-77
2021/07/30 06:33:32;;;;;;;41.18;17.20;;;;;;;40.06;72.96;100306.67;1745244;82;21089;-80
2021/07/30 06:35:58;;;;;;;35.28;18.30;;;;;;;40.55;69.02;100313.39;1745253;82;21032;-80
2021/07/30 06:38:27;;;;;;;36.75;17.40;;;;;;;40.14;63.98;100307.92;1745483;82;20860;-77
2021/07/30 06:40:53;;;;;;;40.73;19.40;;;;;;;39.70;63.97;100319.49;1747249;82;21004;-82
2021/07/30 06:43:19;;;;;;;32.28;19.10;;;;;;;39.20;67.92;100313.72;1745403;82;21328;-79
2021/07/30 06:45:45;;;;;;;38.40;18.60;;;;;;;39.38;66.37;100313.02;1745613;82;21667;-77
2021/07/30 06:48:11;;;;;;;34.38;18.15;;;;;;;39.04;67.94;100311.95;1745619;82;21151;-84
2021/07/30 06:50:39;;;;;;;40.38;19.50;;;;;;;39.15;70.31;100301.03;1745252;82;20943;-78
2021/07/30 06:53:05;;;;;;;35.95;18.10;;;;;;;39.59;61.00;100292.36;1745175;82;21027;-77
2021/07/30 06:55:31;;;;;;;40.20;17.95;;;;;;;39.27;64.10;100300.75;1745376;82;21557;-78
2021/07/30 06:57:56;;;;;;;30.95;18.17;;;;;;;39.12;64.67;100296.30;1745903;82;20907;-77
2021/07/30 07:00:22;;;;;;;32.80;17.65;;;;;;;39.51;66.41;100289.08;1745522;82;21141;-79
2021/07/30 07:02:48;;;;;;;32.80;17.62;;;;;;;40.07;65.24;100285.67;1745316;82;20951;-79
2021/07/30 07:05:16;;;;;;;34.23;17.55;;;;;;;40.75;59.72;100288.88;1745387;82;20971;-86
2021/07/30 07:07:42;;;;;;;36.75;17.82;;;;;;;41.04;56.79;100286.26;1745074;82;21558;-79
2021/07/30 07:10:09;;;;;;;41.50;18.82;;;;;;;41.33;50.82;100294.75;1745274;82;20860;-79
2021/07/30 07:12:37;;;;;;;34.73;16.93;;;;;;;40.57;52.92;100296.75;1745541;82;21102;-79
2021/07/30 07:15:04;;;;;;;39.73;17.87;;;;;;;39.89;54.57;100287.87;1745057;82;21467;-79
2021/07/30 07:17:29;;;;;;;34.23;18.62;;;;;;;39.15;56.82;100283.30;1745283;82;20944;-79
2021/07/30 07:19:55;;;;;;;34.03;16.77;;;;;;;38.35;61.84;100283.34;1745563;82;20942;-76
2021/07/30 07:22:21;;;;;;;32.03;15.32;;;;;;;37.48;62.79;100286.22;1760235;80;21660;-88
2021/07/30 07:24:48;;;;;;;28.12;15.68;;;;;;;36.57;67.96;100280.39;1750348;80;21613;-86
2021/07/30 07:27:13;;;;;;;32.30;15.30;;;;;;;36.07;70.90;100278.99;1729491;82;21019;-87
2021/07/30 07:29:39;;;;;;;34.03;15.28;;;;;;;35.56;76.15;100287.11;1750594;82;21585;-86
2021/07/30 07:32:06;;;;;;;29.63;14.93;;;;;;;35.23;77.41;100284.29;1729663;82;20955;-85
2021/07/30 07:34:32;;;;;;;31.17;14.47;;;;;;;35.06;85.12;100280.52;1750636;82;21038;-87
2021/07/30 07:36:57;;;;;;;34.27;17.35;;;;;;;35.18;88.29;100282.62;1750595;82;21105;-85
2021/07/30 07:39:23;;;;;;;37.08;16.02;;;;;;;35.40;86.78;100289.29;1754324;81;20871;-87
2021/07/30 07:41:49;;;;;;;35.52;15.50;;;;;;;36.05;78.99;100277.85;1750486;80;20978;-87
2021/07/30 07:44:16;;;;;;;28.23;15.35;;;;;;;36.05;78.99;100277.85;1792062;80;20935;-87
2021/07/30 07:46:43;;;;;;;28.57;15.35;;;;;;;36.13;78.30;100296.86;1794532;80;20971;-89
2021/07/30 07:49:09;;;;;;;33.13;14.80;;;;;;;36.05;80.72;100303.89;1794701;80;21083;-87
2021/07/30 07:51:36;;;;;;;28.57;15.53;;;;;;;35.92;81.65;100311.45;1794390;80;20895;-88
2021/07/30 07:54:05;;;;;;;27.98;15.05;;;;;;;35.66;77.96;100316.13;1793823;80;21478;-87
2021/07/30 07:56:31;;;;;;;37.65;15.53;;;;;;;35.32;79.76;100316.52;1739903;82;21087;-86
2021/07/30 07:58:57;;;;;;;32.67;14.10;;;;;;;35.06;82.30;100327.52;1739961;82;20872;-88
2021/07/30 08:01:23;;;;;;;29.32;14.35;;;;;;;34.72;80.47;100324.44;1739473;82;21870;-87
2021/07/30 08:03:48;;;;;;;39.85;15.30;;;;;;;34.34;85.64;100325.39;1739742;82;20888;-87
2021/07/30 08:06:20;;;;;;;22.77;11.60;;;;;;;34.20;90.09;100332.05;1739748;82;20991;-86
2021/07/30 08:08:48;;;;;;;27.05;11.60;;;;;;;34.25;87.22;100332.17;1722991;83;21093;-86
2021/07/30 08:11:14;;;;;;;25.88;10.82;;;;;;;33.93;89.52;100339.89;1722749;83;21002;-91
2021/07/30 08:13:41;;;;;;;28.98;11.65;;;;;;;33.64;87.14;100337.41;1722482;83;21605;-87
2021/07/30 08:16:08;;;;;;;23.30;10.80;;;;;;;33.27;90.77;100339.16;1722543;83;21078;-85
2021/07/30 08:18:35;;;;;;;22.80;10.50;;;;;;;33.00;93.23;100345.53;1722977;83;21073;-85
2021/07/30 08:21:01;;;;;;;23.85;11.70;;;;;;;32.75;95.17;100350.00;1722781;83;21073;-85
2021/07/30 08:23:29;;;;;;;24.67;11.43;;;;;;;32.66;100.00;100347.54;1718235;83;21015;-86
2021/07/30 08:25:55;;;;;;;26.25;12.37;;;;;;;32.62;100.00;100351.77;1746609;82;21901;-85
2021/07/30 08:28:21;;;;;;;24.25;12.60;;;;;;;32.39;100.00;100355.80;1746818;82;21075;-83
2021/07/30 08:30:50;;;;;;;32.73;13.35;;;;;;;32.22;100.00;100353.38;1746410;82;21044;-85
2021/07/30 08:33:16;;;;;;;29.60;15.05;;;;;;;31.89;100.00;100351.47;1746492;82;21028;-86
2021/07/30 08:35:42;;;;;;;28.35;14.95;;;;;;;31.67;100.00;100353.02;1746335;80;21075;-85
2021/07/30 08:38:08;;;;;;;39.38;18.32;;;;;;;31.53;100.00;100352.34;1746755;82;21186;-83
2021/07/30 08:40:37;;;;;;;47.35;22.35;;;;;;;31.44;100.00;100352.80;1746438;82;20952;-83
2021/07/30 08:43:03;;;;;;;52.73;23.60;;;;;;;31.21;100.00;100355.52;1728633;82;21026;-85
2021/07/30 08:45:29;;;;;;;48.28;22.32;;;;;;;30.97;100.00;100362.00;1714360;83;21566;-83
2021/07/30 08:47:56;;;;;;;44.70;22.22;;;;;;;30.75;100.00;100357.89;1694387;83;21108;-88
2021/07/30 08:50:22;;;;;;;42.83;20.85;;;;;;;30.67;100.00;100361.89;1680046;85;21128;-84
2021/07/30 08:52:54;;;;;;;42.90;22.22;;;;;;;30.52;100.00;100354.80;1679871;85;21592;-82
2021/07/30 08:55:23;;;;;;;52.23;23.18;;;;;;;30.37;100.00;100357.42;1679591;85;21018;-84
2021/07/30 08:57:49;;;;;;;43.52;22.65;;;;;;;30.29;100.00;100358.03;1621316;87;21104;-84
2021/07/30 09:00:16;;;;;;;48.63;22.85;;;;;;;30.35;100.00;100355.63;1635758;87;21800;-84
2021/07/30 09:02:42;;;;;;;47.75;22.77;;;;;;;30.28;100.00;100358.63;1635637;87;21142;-84
2021/07/30 09:05:35;;;;;;;50.33;22.82;;;;;;;30.29;100.00;100356.64;1635642;87;21058;-85
2021/07/30 09:08:04;;;;;;;47.45;22.65;;;;;;;30.27;100.00;100354.27;1627394;88;21183;-83
2021/07/30 09:10:35;;;;;;;48.55;22.58;;;;;;;30.27;100.00;100361.22;1655725;86;20910;-84
2021/07/30 09:13:20;;;;;;;48.52;21.87;;;;;;;30.31;100.00;100357.83;1627318;88;21055;-84
2021/07/30 09:16:11;;;;;;;46.68;21.60;;;;;;;30.46;100.00;100359.98;1655799;86;20962;-84
2021/07/30 09:18:42;;;;;;;45.25;21.75;;;;;;;30.51;100.00;100357.39;1627499;88;21618;-83
2021/07/30 09:21:32;;;;;;;45.10;21.83;;;;;;;30.66;100.00;100358.14;1656017;86;21104;-84
2021/07/30 09:24:05;;;;;;;41.28;20.85;;;;;;;31.02;100.00;100355.23;1627603;87;21122;-83
2021/07/30 09:26:42;;;;;;;;;;;;;;;32.01;100.00;100358.56;1657904;86;21544;-83
2021/07/30 09:29:17;;;;;;;49.30;20.85;;;;;;;32.39;100.00;100353.80;1627715;88;21410;-85
2021/07/30 09:31:57;;;;;;;46.70;21.60;;;;;;;32.54;100.00;100357.24;1655326;86;21506;-84
2021/07/30 09:34:41;;;;;;;44.33;22.67;;;;;;;32.44;100.00;100355.32;1620824;88;21134;-84
2021/07/30 09:37:15;;;;;;;48.78;23.10;;;;;;;32.23;100.00;100348.77;1629285;88;21078;-84
2021/07/30 09:39:49;;;;;;;57.78;25.92;;;;;;;32.01;100.00;100346.02;1647717;87;21588;-84
2021/07/30 09:42:31;;;;;;;54.93;27.10;;;;;;;31.77;100.00;100344.98;1627900;86;21168;-84
2021/07/30 09:45:02;;;;;;;47.13;22.53;;;;;;;31.54;100.00;100349.77;1649566;86;21071;-84
2021/07/30 09:47:48;;;;;;;46.28;21.37;;;;;;;31.31;100.00;100358.64;1593173;89;21130;-84
2021/07/30 09:50:14;;;;;;;39.35;18.42;;;;;;;31.19;100.00;100350.95;1599393;89;21152;-82
2021/07/30 09:55:14;;;;;;;38.42;17.50;;;;;;;31.17;100.00;100348.38;1564478;90;21030;-83
2021/07/30 09:57:42;;;;;;;30.85;14.78;;;;;;;31.45;100.00;100353.01;1550422;92;21060;-86
2021/07/30 10:00:14;;;;;;;31.52;16.12;;;;;;;31.93;100.00;100351.46;1565359;91;21267;-84
2021/07/30 10:02:47;;;;;;;29.95;17.67;;;;;;;32.57;100.00;100359.20;1550488;92;21208;-85
2021/07/30 10:05:20;;;;;;;34.33;19.23;;;;;;;33.11;100.00;100357.14;1548395;91;21130;-84
2021/07/30 10:07:45;;;;;;;34.75;18.98;;;;;;;33.51;100.00;100356.78;1527894;94;22049;-85
2021/07/30 10:10:19;;;;;;;41.13;21.02;;;;;;;33.67;100.00;100355.51;1542687;91;21205;-85
2021/07/30 10:12:50;;;;;;;36.70;19.55;;;;;;;33.66;100.00;100341.98;1496761;93;21036;-85
2021/07/30 10:15:15;;;;;;;42.93;21.33;;;;;;;33.60;100.00;100342.28;1520730;93;21050;-90
2021/07/30 10:17:50;;;;;;;43.95;19.42;;;;;;;33.77;100.00;100341.77;1561009;91;21119;-82
2021/07/30 10:20:20;;;;;;;36.13;18.82;;;;;;;33.89;100.00;100337.78;1580873;90;21347;-84
2021/07/30 10:22:51;;;;;;;36.80;19.62;;;;;;;34.06;100.00;100337.91;1531415;93;21043;-84
2021/07/30 10:25:25;;;;;;;38.38;20.97;;;;;;;34.05;100.00;100337.12;1530038;93;21609;-85
2021/07/30 10:28:05;;;;;;;36.73;20.80;;;;;;;33.99;100.00;100338.02;1482497;96;21067;-84
2021/07/30 10:30:52;;;;;;;35.35;20.97;;;;;;;33.98;100.00;100344.22;1482718;96;21097;-84
2021/07/30 10:33:37;;;;;;;44.35;21.30;;;;;;;34.01;100.00;100340.56;1456096;98;21086;-83
2021/07/30 10:36:12;;;;;;;40.92;21.52;;;;;;;33.97;100.00;100339.83;1455411;98;21104;-84
2021/07/30 10:38:40;;;;;;;37.08;21.00;;;;;;;33.96;100.00;100341.05;1421045;99;21133;-85
2021/07/30 10:41:11;;;;;;;34.40;20.60;;;;;;;34.24;100.00;100337.56;1407054;102;21207;-85
2021/07/30 10:43:55;;;;;;;38.85;20.55;;;;;;;34.52;100.00;100337.02;1393245;102;21144;-84
2021/07/30 10:46:21;;;;;;;38.17;21.37;;;;;;;34.71;100.00;100340.26;1399865;102;21155;-83
2021/07/30 10:48:47;;;;;;;38.25;21.40;;;;;;;34.93;99.05;100332.98;1399684;102;21215;-83
2021/07/30 10:51:29;;;;;;;35.70;22.00;;;;;;;34.97;100.00;100339.28;1401902;101;21135;-80
2021/07/30 10:53:59;;;;;;;39.73;21.17;;;;;;;34.96;91.59;100335.53;1416007;101;21161;-85
2021/07/30 10:56:33;;;;;;;40.88;22.10;;;;;;;34.89;97.86;100323.88;1378029;104;21163;-84
2021/07/30 10:59:04;;;;;;;41.88;22.00;;;;;;;34.84;99.26;100327.19;1399602;101;21334;-85
2021/07/30 11:01:38;;;;;;;41.90;22.58;;;;;;;34.88;93.78;100322.28;1420776;101;21089;-85
2021/07/30 11:04:06;;;;;;;37.98;21.23;;;;;;;34.83;94.94;100322.82;1420983;101;21258;-84
2021/07/30 11:06:43;;;;;;;35.85;21.37;;;;;;;34.89;94.36;100324.50;1444875;99;21217;-85
2021/07/30 11:09:14;;;;;;;40.38;19.70;;;;;;;35.09;94.88;100325.25;1444688;99;21716;-84
2021/07/30 11:12:00;;;;;;;37.10;19.30;;;;;;;35.17;96.06;100316.86;1432679;98;21224;-84